Time;durP1;ratioP1;P1;durP2;ratioP2;P2;SDS_P1;SDS_P2;PMS_P1;PMS_P2;Temp;Humidity;BMP_temperature;BMP_pressure;BME280_temperature;BME280_humidity;BME280_pressure;Samples;Min_cycle;Max_cycle;Signal;HPM_P1;HPM_P2
2023/03/04 00:01:55;;;;;;;9.13;2.70;;;;;;;;;;5061819;28;20049;-79
2023/03/04 00:04:21;;;;;;;13.63;2.60;;;;;;;;;;5060193;28;20044;-79
2023/03/04 00:06:47;;;;;;;7.75;2.30;;;;;;;;;;5061294;28;20048;-79
2023/03/04 00:09:13;;;;;;;13.75;2.45;;;;;;;;;;5060693;28;20080;-79
2023/03/04 00:11:39;;;;;;;11.73;3.45;;;;;;;;;;5059368;28;20048;-78
2023/03/04 00:14:05;;;;;;;8.45;2.33;;;;;;;;;;5060244;28;20049;-79
2023/03/04 00:16:31;;;;;;;11.68;2.65;;;;;;;;;;5059982;28;20044;-79
2023/03/04 00:18:57;;;;;;;6.45;1.85;;;;;;;;;;5059096;28;20089;-78
2023/03/04 00:21:23;;;;;;;13.13;2.47;;;;;;;;;;5058804;28;20049;-79
2023/03/04 00:23:49;;;;;;;7.18;2.10;;;;;;;;;;5059524;28;20403;-79
2023/03/04 00:26:16;;;;;;;9.48;3.05;;;;;;;;;;5059229;28;20100;-78
2023/03/04 00:28:42;;;;;;;8.88;2.05;;;;;;;;;;5056495;28;20037;-79
2023/03/04 00:31:08;;;;;;;8.57;2.17;;;;;;;;;;5046712;28;20053;-79
2023/03/04 00:33:34;;;;;;;11.82;2.60;;;;;;;;;;5054918;28;20033;-79
2023/03/04 00:36:01;;;;;;;7.07;1.90;;;;;;;;;;5050833;28;20127;-79
2023/03/04 00:38:27;;;;;;;5.38;2.30;;;;;;;;;;5057426;28;20052;-79
2023/03/04 00:40:53;;;;;;;7.50;2.30;;;;;;;;;;5057339;28;20033;-79
2023/03/04 00:43:19;;;;;;;14.82;3.55;;;;;;;;;;5057566;28;20043;-79
2023/03/04 00:45:45;;;;;;;10.02;3.33;;;;;;;;;;5055076;28;20055;-79
2023/03/04 00:48:11;;;;;;;17.80;3.15;;;;;;;;;;5053299;28;20041;-79
2023/03/04 00:50:38;;;;;;;8.27;2.95;;;;;;;;;;5054864;28;20080;-79
2023/03/04 00:53:04;;;;;;;12.90;2.92;;;;;;;;;;5054103;28;20049;-79
2023/03/04 00:55:30;;;;;;;15.02;3.13;;;;;;;;;;5056617;28;20040;-79
2023/03/04 00:57:56;;;;;;;9.18;2.30;;;;;;;;;;5059061;28;20044;-79
2023/03/04 01:00:22;;;;;;;9.05;3.30;;;;;;;;;;5061552;28;20498;-78
2023/03/04 01:02:48;;;;;;;7.55;2.10;;;;;;;;;;5069393;28;20511;-79
2023/03/04 01:05:14;;;;;;;7.75;2.20;;;;;;;;;;5053352;28;20041;-79
2023/03/04 01:07:40;;;;;;;9.60;2.50;;;;;;;;;;5054147;28;20055;-79
2023/03/04 01:10:08;;;;;;;13.57;3.00;;;;;;;;;;5051523;28;20410;-79
2023/03/04 01:12:35;;;;;;;11.63;2.78;;;;;;;;;;5054948;28;20033;-79
2023/03/04 01:15:01;;;;;;;9.70;2.70;;;;;;;;;;5046366;28;20040;-79
2023/03/04 01:17:27;;;;;;;8.77;2.33;;;;;;;;;;5055827;28;20080;-79
2023/03/04 01:19:54;;;;;;;9.27;2.78;;;;;;;;;;5055943;28;20069;-79
2023/03/04 01:22:20;;;;;;;7.80;2.00;;;;;;;;;;5055171;28;20050;-79
2023/03/04 01:24:46;;;;;;;10.63;2.60;;;;;;;;;;5049417;28;20064;-79
2023/03/04 01:27:12;;;;;;;7.10;2.45;;;;;;;;;;5053578;28;20060;-79
2023/03/04 01:29:38;;;;;;;9.15;2.40;;;;;;;;;;5056416;28;20170;-79
2023/03/04 01:32:04;;;;;;;9.18;2.42;;;;;;;;;;5052741;28;20480;-79
2023/03/04 01:34:30;;;;;;;10.23;2.80;;;;;;;;;;5053807;28;20072;-79
2023/03/04 01:36:56;;;;;;;11.30;2.70;;;;;;;;;;5050858;28;20043;-79
2023/03/04 01:39:22;;;;;;;6.88;2.60;;;;;;;;;;5051125;28;20077;-78
2023/03/04 01:41:48;;;;;;;9.40;2.42;;;;;;;;;;5054394;28;20090;-78
2023/03/04 01:44:15;;;;;;;8.70;2.40;;;;;;;;;;5052006;28;20069;-79
2023/03/04 01:46:43;;;;;;;8.40;2.60;;;;;;;;;;5051750;28;20052;-79
2023/03/04 01:49:12;;;;;;;9.43;2.20;;;;;;;;;;5052971;28;20124;-79
2023/03/04 01:51:38;;;;;;;8.60;2.55;;;;;;;;;;5054785;28;20098;-78
2023/03/04 01:54:04;;;;;;;7.78;2.47;;;;;;;;;;5058094;28;20124;-79
2023/03/04 01:56:34;;;;;;;6.55;2.67;;;;;;;;;;5059922;28;20052;-79
2023/03/04 01:59:07;;;;;;;9.10;2.83;;;;;;;;;;5060626;28;20497;-79
2023/03/04 02:01:33;;;;;;;8.90;2.30;;;;;;;;;;5061203;28;20048;-79
2023/03/04 02:04:00;;;;;;;11.30;2.38;;;;;;;;;;5051076;28;20042;-79
2023/03/04 02:06:26;;;;;;;5.57;2.50;;;;;;;;;;5059950;28;20033;-79
2023/03/04 02:08:52;;;;;;;5.18;2.20;;;;;;;;;;5059859;28;20067;-79
2023/03/04 02:11:18;;;;;;;6.30;3.03;;;;;;;;;;5059603;28;20106;-79
2023/03/04 02:13:44;;;;;;;8.75;2.35;;;;;;;;;;5054821;28;20049;-79
2023/03/04 02:16:10;;;;;;;7.47;2.53;;;;;;;;;;5053064;28;20596;-79
2023/03/04 02:18:36;;;;;;;9.82;2.10;;;;;;;;;;5053845;28;20049;-79
2023/03/04 02:21:21;;;;;;;9.88;2.53;;;;;;;;;;5053886;28;20037;-79
2023/03/04 02:23:53;;;;;;;9.88;2.92;;;;;;;;;;5055022;28;20037;-79
2023/03/04 02:26:20;;;;;;;7.53;2.60;;;;;;;;;;5053664;28;20449;-79
2023/03/04 02:28:47;;;;;;;9.48;2.75;;;;;;;;;;5056261;28;20067;-79
2023/03/04 02:31:21;;;;;;;9.18;2.60;;;;;;;;;;5052382;28;20038;-79
2023/03/04 02:33:47;;;;;;;8.30;2.50;;;;;;;;;;5059690;28;20077;-79
2023/03/04 02:36:13;;;;;;;8.90;2.40;;;;;;;;;;5055013;28;20037;-79
2023/03/04 02:38:39;;;;;;;7.85;2.30;;;;;;;;;;5053846;28;20041;-79
2023/03/04 02:41:06;;;;;;;6.10;1.98;;;;;;;;;;5057137;28;20128;-79
2023/03/04 02:43:32;;;;;;;11.18;2.60;;;;;;;;;;5056626;28;20045;-79
2023/03/04 02:45:58;;;;;;;9.07;2.28;;;;;;;;;;5053622;28;20047;-79
2023/03/04 02:48:25;;;;;;;7.57;2.22;;;;;;;;;;5054792;28;20059;-79
2023/03/04 02:50:51;;;;;;;8.18;2.75;;;;;;;;;;5054991;28;20068;-79
2023/03/04 02:53:19;;;;;;;9.35;2.05;;;;;;;;;;5050304;28;20037;-79
2023/03/04 02:55:45;;;;;;;10.20;3.10;;;;;;;;;;5059402;28;20085;-79
2023/03/04 02:58:12;;;;;;;12.25;2.72;;;;;;;;;;5061081;28;20052;-79
2023/03/04 03:00:38;;;;;;;8.77;2.20;;;;;;;;;;5055522;28;20045;-79
2023/03/04 03:03:04;;;;;;;10.15;2.42;;;;;;;;;;5050963;28;20098;-78
2023/03/04 03:05:32;;;;;;;9.70;2.47;;;;;;;;;;5049835;28;20041;-79
2023/03/04 03:07:58;;;;;;;8.77;2.30;;;;;;;;;;5052731;28;20589;-79
2023/03/04 03:10:24;;;;;;;10.95;2.58;;;;;;;;;;5049272;28;20045;-79
2023/03/04 03:12:50;;;;;;;4.38;2.03;;;;;;;;;;5055969;28;20120;-79
2023/03/04 03:15:16;;;;;;;6.95;2.28;;;;;;;;;;5082801;28;20108;-79
2023/03/04 03:17:42;;;;;;;9.20;2.38;;;;;;;;;;5057573;28;20057;-79
2023/03/04 03:20:09;;;;;;;12.82;2.95;;;;;;;;;;5058440;28;20087;-79
2023/03/04 03:22:35;;;;;;;8.55;2.15;;;;;;;;;;5058544;28;20044;-78
2023/03/04 03:25:01;;;;;;;7.00;2.30;;;;;;;;;;5057961;28;20049;-78
2023/03/04 03:27:27;;;;;;;10.95;2.50;;;;;;;;;;5055144;28;20052;-79
2023/03/04 03:29:53;;;;;;;9.07;2.40;;;;;;;;;;5058206;28;20045;-79
2023/03/04 03:32:19;;;;;;;8.50;2.03;;;;;;;;;;5057341;28;20041;-79
2023/03/04 03:34:45;;;;;;;8.00;2.17;;;;;;;;;;5044833;28;20134;-78
2023/03/04 03:37:12;;;;;;;10.52;2.00;;;;;;;;;;5051123;28;20041;-79
2023/03/04 03:39:38;;;;;;;6.28;1.90;;;;;;;;;;5053363;28;20061;-79
2023/03/04 03:42:04;;;;;;;8.23;1.98;;;;;;;;;;5056293;28;20049;-79
2023/03/04 03:44:30;;;;;;;10.27;2.42;;;;;;;;;;5053238;28;20045;-78
2023/03/04 03:46:56;;;;;;;7.63;2.15;;;;;;;;;;5055423;28;20120;-79
2023/03/04 03:49:22;;;;;;;4.05;1.85;;;;;;;;;;5045027;28;20159;-79
2023/03/04 03:51:48;;;;;;;6.47;2.05;;;;;;;;;;5055737;28;20511;-79
2023/03/04 03:54:14;;;;;;;5.80;2.25;;;;;;;;;;5048193;28;20094;-79
2023/03/04 03:56:40;;;;;;;8.10;1.90;;;;;;;;;;5055511;28;20044;-79
2023/03/04 03:59:06;;;;;;;6.90;2.35;;;;;;;;;;5051777;28;20056;-79
2023/03/04 04:01:32;;;;;;;5.70;1.83;;;;;;;;;;5050401;28;20040;-79
2023/03/04 04:03:59;;;;;;;9.38;1.77;;;;;;;;;;5055341;28;20086;-79
2023/03/04 04:06:25;;;;;;;8.70;1.83;;;;;;;;;;5052076;28;20072;-79
2023/03/04 04:08:51;;;;;;;6.70;2.10;;;;;;;;;;5056060;28;20053;-78
2023/03/04 04:11:18;;;;;;;5.75;2.13;;;;;;;;;;5047108;28;20119;-79
2023/03/04 04:13:44;;;;;;;6.90;1.88;;;;;;;;;;5054220;28;20487;-79
2023/03/04 04:16:10;;;;;;;6.22;1.70;;;;;;;;;;5054478;28;20475;-79
2023/03/04 04:18:36;;;;;;;9.23;2.20;;;;;;;;;;5052869;28;20106;-78
2023/03/04 04:21:03;;;;;;;3.78;1.60;;;;;;;;;;5044807;28;20049;-78
2023/03/04 04:23:29;;;;;;;5.47;1.85;;;;;;;;;;5052807;28;20049;-79
2023/03/04 04:25:56;;;;;;;5.43;1.80;;;;;;;;;;5051542;28;20037;-79
2023/03/04 04:28:22;;;;;;;6.78;2.08;;;;;;;;;;5039347;28;20385;-77
2023/03/04 04:30:50;;;;;;;7.57;1.63;;;;;;;;;;5046182;28;20045;-78
2023/03/04 04:33:16;;;;;;;7.20;1.95;;;;;;;;;;5044654;28;20073;-79
2023/03/04 04:35:42;;;;;;;4.15;1.67;;;;;;;;;;5050406;28;20123;-79
2023/03/04 04:38:09;;;;;;;4.60;1.50;;;;;;;;;;5054657;28;20121;-79
2023/03/04 04:40:36;;;;;;;6.50;1.48;;;;;;;;;;5054953;28;20037;-79
2023/03/04 04:43:02;;;;;;;4.32;1.60;;;;;;;;;;5053343;28;20052;-79
2023/03/04 04:45:28;;;;;;;3.08;1.63;;;;;;;;;;5052530;28;20045;-79
2023/03/04 04:47:56;;;;;;;6.35;2.05;;;;;;;;;;5050875;28;20084;-78
2023/03/04 04:50:23;;;;;;;6.82;1.98;;;;;;;;;;5052456;28;20060;-79
2023/03/04 04:52:49;;;;;;;5.90;1.98;;;;;;;;;;5052608;28;20040;-79
2023/03/04 04:55:15;;;;;;;7.75;2.10;;;;;;;;;;5055844;28;20124;-78
2023/03/04 04:57:41;;;;;;;8.52;2.00;;;;;;;;;;5056847;28;20041;-78
2023/03/04 05:00:08;;;;;;;10.05;2.05;;;;;;;;;;5056250;28;20072;-79
2023/03/04 05:02:35;;;;;;;9.32;2.10;;;;;;;;;;5035345;28;20925;-79
2023/03/04 05:05:05;;;;;;;3.70;1.95;;;;;;;;;;5051940;28;20070;-79
2023/03/04 05:07:34;;;;;;;10.27;2.50;;;;;;;;;;5072640;28;20045;-79
2023/03/04 05:10:00;;;;;;;5.75;2.03;;;;;;;;;;5047173;28;20389;-79
2023/03/04 05:12:26;;;;;;;8.18;1.95;;;;;;;;;;5050736;28;20051;-77
2023/03/04 05:14:52;;;;;;;10.38;2.25;;;;;;;;;;5042959;28;20052;-78
2023/03/04 05:17:18;;;;;;;8.07;2.38;;;;;;;;;;5049498;28;20051;-78
2023/03/04 05:19:44;;;;;;;10.52;2.30;;;;;;;;;;5052670;28;20048;-78
2023/03/04 05:22:10;;;;;;;4.85;1.58;;;;;;;;;;5052647;28;20041;-78
2023/03/04 05:24:36;;;;;;;7.53;2.17;;;;;;;;;;5043933;28;20543;-78
2023/03/04 05:27:02;;;;;;;12.65;3.03;;;;;;;;;;5047924;28;20104;-78
2023/03/04 05:29:28;;;;;;;12.57;2.78;;;;;;;;;;5040820;28;20163;-78
2023/03/04 05:31:54;;;;;;;6.03;1.90;;;;;;;;;;5054244;28;20499;-78
2023/03/04 05:34:20;;;;;;;3.35;1.48;;;;;;;;;;5056294;28;20529;-79
2023/03/04 05:36:46;;;;;;;5.25;1.60;;;;;;;;;;5042292;28;20495;-79
2023/03/04 05:39:12;;;;;;;4.85;1.80;;;;;;;;;;5043483;28;20102;-79
2023/03/04 05:41:38;;;;;;;9.55;2.00;;;;;;;;;;5053003;28;20063;-79
2023/03/04 05:44:04;;;;;;;6.30;1.90;;;;;;;;;;5052721;28;20103;-78
2023/03/04 05:46:31;;;;;;;4.65;1.77;;;;;;;;;;5051775;28;20049;-78
2023/03/04 05:48:57;;;;;;;8.70;1.95;;;;;;;;;;5042913;28;20124;-78
2023/03/04 05:51:23;;;;;;;6.38;1.85;;;;;;;;;;5053237;28;20119;-78
2023/03/04 05:53:49;;;;;;;5.55;2.00;;;;;;;;;;5053331;28;20045;-78
2023/03/04 05:56:16;;;;;;;5.47;2.08;;;;;;;;;;5052438;28;20045;-78
2023/03/04 05:58:43;;;;;;;10.93;2.15;;;;;;;;;;5052212;28;20549;-78
2023/03/04 06:01:09;;;;;;;5.55;2.20;;;;;;;;;;5049541;28;20038;-78
2023/03/04 06:03:35;;;;;;;7.97;2.53;;;;;;;;;;5046056;28;20065;-78
2023/03/04 06:06:01;;;;;;;7.05;2.35;;;;;;;;;;5047199;28;20101;-78
2023/03/04 06:08:27;;;;;;;7.30;2.05;;;;;;;;;;5045735;28;20052;-78
2023/03/04 06:10:55;;;;;;;5.57;1.90;;;;;;;;;;5050474;28;20432;-78
2023/03/04 06:13:22;;;;;;;10.48;2.60;;;;;;;;;;5043008;28;20069;-78
2023/03/04 06:15:52;;;;;;;14.00;3.00;;;;;;;;;;5047735;28;20068;-78
2023/03/04 06:18:18;;;;;;;9.30;2.30;;;;;;;;;;5047780;28;20060;-78
2023/03/04 06:20:44;;;;;;;7.30;1.98;;;;;;;;;;5042513;28;20037;-78
2023/03/04 06:23:10;;;;;;;7.95;2.00;;;;;;;;;;5052179;28;20156;-78
2023/03/04 06:25:36;;;;;;;5.63;1.85;;;;;;;;;;5050002;28;20095;-78
2023/03/04 06:28:03;;;;;;;9.32;1.73;;;;;;;;;;5046800;28;20037;-78
2023/03/04 06:30:29;;;;;;;14.25;2.72;;;;;;;;;;5042363;28;20048;-78
2023/03/04 06:32:55;;;;;;;11.52;2.60;;;;;;;;;;5051793;28;20033;-78
2023/03/04 06:35:21;;;;;;;11.32;2.85;;;;;;;;;;5050746;28;20041;-78
2023/03/04 06:37:47;;;;;;;10.27;2.30;;;;;;;;;;5050989;28;20049;-78
2023/03/04 06:40:13;;;;;;;5.82;2.35;;;;;;;;;;5050477;28;20048;-78
2023/03/04 06:42:40;;;;;;;6.55;2.25;;;;;;;;;;5049049;28;20044;-78
2023/03/04 06:45:06;;;;;;;7.78;2.42;;;;;;;;;;5051779;28;20537;-78
2023/03/04 06:47:32;;;;;;;10.75;2.58;;;;;;;;;;5051550;28;20051;-78
2023/03/04 06:49:58;;;;;;;8.65;2.30;;;;;;;;;;5049119;28;20041;-78
2023/03/04 06:52:24;;;;;;;8.25;2.17;;;;;;;;;;5054343;28;20033;-78
2023/03/04 06:54:50;;;;;;;13.00;2.80;;;;;;;;;;5048280;28;20041;-78
2023/03/04 06:57:16;;;;;;;10.70;2.70;;;;;;;;;;5056208;28;20044;-77
2023/03/04 06:59:42;;;;;;;9.40;3.05;;;;;;;;;;5056471;28;20044;-78
2023/03/04 07:02:12;;;;;;;9.38;2.28;;;;;;;;;;5054426;28;20407;-78
2023/03/04 07:04:38;;;;;;;11.82;2.40;;;;;;;;;;5049602;28;20060;-78
2023/03/04 07:07:04;;;;;;;14.18;2.80;;;;;;;;;;5052912;28;20090;-78
2023/03/04 07:09:30;;;;;;;13.20;2.58;;;;;;;;;;5055256;28;20049;-78
2023/03/04 07:11:56;;;;;;;14.15;3.10;;;;;;;;;;5046872;28;20053;-78
2023/03/04 07:14:22;;;;;;;13.05;3.42;;;;;;;;;;5051666;28;20152;-78
2023/03/04 07:16:48;;;;;;;14.10;3.03;;;;;;;;;;5048958;28;20116;-78
2023/03/04 07:19:14;;;;;;;11.90;2.80;;;;;;;;;;5045966;28;20136;-80
2023/03/04 07:21:40;;;;;;;10.25;2.67;;;;;;;;;;5052286;28;20052;-80
2023/03/04 07:24:07;;;;;;;21.15;3.45;;;;;;;;;;5048959;28;20056;-79
2023/03/04 07:26:33;;;;;;;5.45;2.65;;;;;;;;;;5048524;28;20045;-78
2023/03/04 07:28:59;;;;;;;10.00;3.13;;;;;;;;;;5033653;28;20511;-78
2023/03/04 07:31:30;;;;;;;8.90;2.53;;;;;;;;;;5055675;28;20048;-78
2023/03/04 07:33:57;;;;;;;8.00;2.28;;;;;;;;;;5047732;28;20106;-78
2023/03/04 07:36:23;;;;;;;13.88;2.80;;;;;;;;;;5051178;28;20099;-78
2023/03/04 07:38:50;;;;;;;13.55;2.80;;;;;;;;;;5054659;28;20068;-78
2023/03/04 07:41:17;;;;;;;13.57;2.90;;;;;;;;;;5034568;28;20049;-78
2023/03/04 07:43:45;;;;;;;13.57;3.40;;;;;;;;;;5050372;28;20045;-78
2023/03/04 07:46:12;;;;;;;10.32;2.83;;;;;;;;;;5046937;28;20049;-78
2023/03/04 07:48:38;;;;;;;9.05;3.13;;;;;;;;;;5048418;28;20037;-77
2023/03/04 07:51:07;;;;;;;11.68;4.00;;;;;;;;;;5050389;28;20555;-78
2023/03/04 07:53:33;;;;;;;12.40;2.53;;;;;;;;;;5051035;28;20041;-78
2023/03/04 07:56:01;;;;;;;11.10;2.97;;;;;;;;;;5054097;28;20044;-78
2023/03/04 07:58:27;;;;;;;10.07;3.15;;;;;;;;;;5049665;28;20049;-78
2023/03/04 08:00:56;;;;;;;11.40;3.15;;;;;;;;;;5048081;28;20037;-78
2023/03/04 08:03:23;;;;;;;10.18;2.70;;;;;;;;;;5049613;28;20499;-78
2023/03/04 08:05:49;;;;;;;6.95;2.65;;;;;;;;;;5048125;28;20044;-78
2023/03/04 08:08:15;;;;;;;8.38;2.53;;;;;;;;;;5049787;28;20120;-77
2023/03/04 08:10:41;;;;;;;10.00;2.63;;;;;;;;;;5051861;28;20132;-78
2023/03/04 08:13:08;;;;;;;6.85;2.38;;;;;;;;;;5046491;28;20088;-78
2023/03/04 08:15:35;;;;;;;8.02;2.63;;;;;;;;;;5052601;28;20044;-78
2023/03/04 08:18:01;;;;;;;11.90;3.05;;;;;;;;;;5046973;28;20057;-78
2023/03/04 08:20:27;;;;;;;10.55;3.28;;;;;;;;;;5053185;28;20037;-77
2023/03/04 08:22:54;;;;;;;12.65;2.72;;;;;;;;;;5049313;28;20136;-78
2023/03/04 08:25:20;;;;;;;10.13;2.88;;;;;;;;;;5051314;28;20478;-78
2023/03/04 08:27:46;;;;;;;16.75;3.00;;;;;;;;;;5049030;28;20037;-78
2023/03/04 08:30:12;;;;;;;14.00;2.88;;;;;;;;;;5050447;28;20537;-78
2023/03/04 08:32:38;;;;;;;9.77;2.53;;;;;;;;;;5056378;28;20059;-78
2023/03/04 08:35:04;;;;;;;10.98;2.45;;;;;;;;;;5057418;28;20079;-78
2023/03/04 08:37:30;;;;;;;11.15;2.47;;;;;;;;;;5055615;28;20129;-78
2023/03/04 08:39:56;;;;;;;9.60;2.72;;;;;;;;;;5054923;28;20068;-78
2023/03/04 08:42:23;;;;;;;17.45;3.65;;;;;;;;;;5057153;28;20052;-78
2023/03/04 08:44:49;;;;;;;13.60;2.90;;;;;;;;;;5056077;28;20045;-78
2023/03/04 08:47:15;;;;;;;17.73;3.22;;;;;;;;;;5042864;28;20044;-78
2023/03/04 08:49:41;;;;;;;10.40;3.15;;;;;;;;;;5044488;28;20106;-78
2023/03/04 08:52:07;;;;;;;16.77;4.10;;;;;;;;;;5055147;28;20098;-78
2023/03/04 08:54:33;;;;;;;12.73;2.95;;;;;;;;;;5054402;28;20045;-78
2023/03/04 08:57:00;;;;;;;10.57;3.45;;;;;;;;;;5054986;28;20045;-79
2023/03/04 08:59:26;;;;;;;14.43;3.50;;;;;;;;;;5055626;28;20045;-79
2023/03/04 09:01:52;;;;;;;16.60;4.25;;;;;;;;;;5054683;28;20057;-79
2023/03/04 09:04:18;;;;;;;12.52;3.08;;;;;;;;;;5054880;28;20098;-79
2023/03/04 09:06:44;;;;;;;11.48;2.88;;;;;;;;;;5055796;28;20103;-80
2023/03/04 09:09:10;;;;;;;12.98;2.50;;;;;;;;;;5050442;28;20045;-76
2023/03/04 09:11:36;;;;;;;11.15;2.25;;;;;;;;;;5048228;28;20408;-77
2023/03/04 09:14:03;;;;;;;7.28;2.40;;;;;;;;;;5060219;28;20056;-76
2023/03/04 09:16:29;;;;;;;10.55;2.60;;;;;;;;;;5043633;28;20451;-75
2023/03/04 09:18:55;;;;;;;11.57;3.20;;;;;;;;;;5050084;28;20512;-75
2023/03/04 09:21:21;;;;;;;9.93;2.90;;;;;;;;;;5051623;28;20569;-76
2023/03/04 09:23:47;;;;;;;10.13;2.53;;;;;;;;;;5051110;28;20061;-76
2023/03/04 09:26:18;;;;;;;13.02;2.95;;;;;;;;;;5050464;28;20071;-75
2023/03/04 09:28:44;;;;;;;15.23;2.90;;;;;;;;;;5053251;28;20048;-75
2023/03/04 09:31:12;;;;;;;10.73;2.55;;;;;;;;;;5072351;28;20048;-75
2023/03/04 09:33:40;;;;;;;7.82;2.30;;;;;;;;;;5051844;28;20068;-76
2023/03/04 09:36:06;;;;;;;9.30;2.63;;;;;;;;;;5052789;28;20084;-75
2023/03/04 09:38:32;;;;;;;6.18;2.25;;;;;;;;;;5051974;28;20052;-76
2023/03/04 09:41:02;;;;;;;8.30;2.22;;;;;;;;;;5051392;28;20041;-76
2023/03/04 09:43:30;;;;;;;8.15;2.22;;;;;;;;;;5050830;28;20118;-75
2023/03/04 09:45:58;;;;;;;5.97;1.90;;;;;;;;;;5052290;28;20068;-75
2023/03/04 09:48:27;;;;;;;5.70;1.80;;;;;;;;;;5049302;28;20053;-76
2023/03/04 09:51:02;;;;;;;3.92;1.27;;;;;;;;;;5052972;28;20518;-75
2023/03/04 09:53:48;;;;;;;3.93;1.67;;;;;;;;;;5052938;28;20125;-75
2023/03/04 09:56:14;;;;;;;8.18;2.33;;;;;;;;;;5054131;28;20044;-76
2023/03/04 09:58:40;;;;;;;8.45;1.83;;;;;;;;;;5034824;28;20049;-76
2023/03/04 10:01:29;;;;;;;5.78;1.55;;;;;;;;;;5051346;28;20048;-76
2023/03/04 10:04:02;;;;;;;11.93;2.90;;;;;;;;;;5050841;28;20072;-75
2023/03/04 10:06:28;;;;;;;6.38;2.72;;;;;;;;;;5052526;28;20610;-75
2023/03/04 10:09:00;;;;;;;11.88;3.45;;;;;;;;;;5050455;28;20041;-76
2023/03/04 10:11:29;;;;;;;12.00;2.95;;;;;;;;;;5055062;28;20507;-75
2023/03/04 10:14:11;;;;;;;7.70;2.78;;;;;;;;;;5056655;28;20041;-75
2023/03/04 10:16:46;;;;;;;15.82;2.60;;;;;;;;;;5056952;28;20045;-75
2023/03/04 10:19:29;;;;;;;10.30;2.75;;;;;;;;;;5055836;28;20061;-76
2023/03/04 10:21:55;;;;;;;16.95;3.03;;;;;;;;;;5056660;28;20480;-76
2023/03/04 10:24:24;;;;;;;11.05;2.20;;;;;;;;;;5055388;28;20514;-75
2023/03/04 10:26:55;;;;;;;9.90;2.80;;;;;;;;;;5054204;28;20089;-76
2023/03/04 10:29:23;;;;;;;10.23;2.33;;;;;;;;;;5054139;28;20102;-77
2023/03/04 10:31:49;;;;;;;8.73;3.45;;;;;;;;;;5055197;28;20056;-75
2023/03/04 10:34:16;;;;;;;11.48;2.83;;;;;;;;;;5054535;28;20495;-76
2023/03/04 10:36:56;;;;;;;8.35;2.40;;;;;;;;;;5054819;28;20055;-76
2023/03/04 10:39:25;;;;;;;11.15;2.92;;;;;;;;;;5055166;28;20050;-76
2023/03/04 10:41:56;;;;;;;10.05;2.50;;;;;;;;;;5054399;28;20033;-76
2023/03/04 10:44:22;;;;;;;7.57;2.47;;;;;;;;;;5049922;28;20082;-77
2023/03/04 10:46:49;;;;;;;11.98;2.85;;;;;;;;;;5051717;28;20087;-76
2023/03/04 10:49:16;;;;;;;10.85;2.67;;;;;;;;;;5054957;28;20041;-77
2023/03/04 10:51:46;;;;;;;10.23;2.85;;;;;;;;;;5043705;28;20076;-76
2023/03/04 10:54:26;;;;;;;10.15;2.95;;;;;;;;;;5036236;28;20491;-76
2023/03/04 10:56:55;;;;;;;16.23;2.78;;;;;;;;;;5044344;28;20045;-76
2023/03/04 10:59:37;;;;;;;7.28;2.38;;;;;;;;;;5054742;28;20555;-76
2023/03/04 11:02:42;;;;;;;19.13;3.35;;;;;;;;;;5052195;28;20106;-76
2023/03/04 11:05:16;;;;;;;10.52;3.03;;;;;;;;;;5037384;28;20130;-76
2023/03/04 11:07:50;;;;;;;10.38;3.25;;;;;;;;;;5054040;28;20368;-76
2023/03/04 11:10:20;;;;;;;18.42;4.20;;;;;;;;;;5053958;28;20056;-77
2023/03/04 11:12:50;;;;;;;13.45;3.72;;;;;;;;;;5037501;28;20073;-77
2023/03/04 11:15:26;;;;;;;14.27;4.25;;;;;;;;;;5055395;28;20499;-77
2023/03/04 11:17:54;;;;;;;17.13;3.53;;;;;;;;;;5053707;28;20057;-77
2023/03/04 11:20:29;;;;;;;19.00;3.92;;;;;;;;;;5052744;28;20474;-77
2023/03/04 11:22:56;;;;;;;16.15;3.58;;;;;;;;;;5048803;28;20045;-77
2023/03/04 11:25:25;;;;;;;16.35;4.22;;;;;;;;;;5032449;28;20492;-77
2023/03/04 11:27:53;;;;;;;14.75;2.80;;;;;;;;;;5036848;28;20044;-77
2023/03/04 11:30:35;;;;;;;6.18;2.22;;;;;;;;;;5037130;28;20242;-77
2023/03/04 11:33:05;;;;;;;9.10;2.40;;;;;;;;;;5057271;28;20515;-78
2023/03/04 11:35:38;;;;;;;13.60;3.20;;;;;;;;;;5062288;28;20090;-79
2023/03/04 11:38:04;;;;;;;11.15;2.90;;;;;;;;;;5059971;28;20056;-78
2023/03/04 11:40:40;;;;;;;12.25;3.22;;;;;;;;;;5055774;28;20049;-77
2023/03/04 11:43:30;;;;;;;14.98;2.90;;;;;;;;;;5054110;28;20120;-78
2023/03/04 11:45:59;;;;;;;12.20;3.53;;;;;;;;;;5087611;28;20041;-78
2023/03/04 11:48:33;;;;;;;12.30;3.30;;;;;;;;;;5054237;28;20098;-79
2023/03/04 11:51:07;;;;;;;12.88;3.85;;;;;;;;;;5057801;28;20127;-78
2023/03/04 11:53:36;;;;;;;19.23;3.83;;;;;;;;;;5056824;28;20049;-77
2023/03/04 11:56:03;;;;;;;12.82;2.88;;;;;;;;;;5055321;28;20052;-79
2023/03/04 11:58:37;;;;;;;14.35;3.35;;;;;;;;;;5055635;28;20102;-77
2023/03/04 12:01:03;;;;;;;12.32;3.53;;;;;;;;;;5088167;28;20045;-78
2023/03/04 12:03:48;;;;;;;18.25;3.78;;;;;;;;;;5056003;28;20108;-78
2023/03/04 12:06:25;;;;;;;9.57;3.03;;;;;;;;;;5088250;28;20045;-77
2023/03/04 12:08:51;;;;;;;12.88;2.80;;;;;;;;;;5055326;28;20049;-78
2023/03/04 12:11:28;;;;;;;10.68;2.80;;;;;;;;;;5055029;28;20079;-78
2023/03/04 12:13:57;;;;;;;9.70;2.80;;;;;;;;;;5053013;28;20037;-77
2023/03/04 12:16:44;;;;;;;9.90;2.78;;;;;;;;;;5033654;28;20045;-78
2023/03/04 12:19:28;;;;;;;9.07;3.28;;;;;;;;;;5047040;28;20053;-77
2023/03/04 12:21:54;;;;;;;11.00;2.88;;;;;;;;;;5053332;28;20041;-77
2023/03/04 12:24:20;;;;;;;9.85;2.72;;;;;;;;;;5054711;28;20048;-78
2023/03/04 12:26:50;;;;;;;7.88;2.50;;;;;;;;;;5048876;28;20037;-77
2023/03/04 12:29:28;;;;;;;9.57;2.78;;;;;;;;;;5048589;28;20047;-77
2023/03/04 12:32:10;;;;;;;12.02;2.58;;;;;;;;;;5053251;28;20061;-77
2023/03/04 12:34:42;;;;;;;14.68;3.08;;;;;;;;;;5054356;28;20045;-78
2023/03/04 12:37:27;;;;;;;12.63;3.83;;;;;;;;;;5054805;28;20051;-77
2023/03/04 12:40:12;;;;;;;14.85;2.90;;;;;;;;;;5034757;28;20045;-78
2023/03/04 12:42:55;;;;;;;17.77;3.33;;;;;;;;;;5042310;28;20045;-77
2023/03/04 12:45:27;;;;;;;11.85;2.85;;;;;;;;;;5054909;28;20124;-77
2023/03/04 12:48:05;;;;;;;11.88;3.42;;;;;;;;;;5054195;28;20045;-77
2023/03/04 12:50:37;;;;;;;7.50;2.75;;;;;;;;;;5054078;28;20048;-78
2023/03/04 12:53:03;;;;;;;14.13;2.88;;;;;;;;;;5054594;28;20479;-77
2023/03/04 12:55:37;;;;;;;13.70;3.10;;;;;;;;;;5052983;28;20044;-77
2023/03/04 12:58:04;;;;;;;12.25;2.70;;;;;;;;;;5075897;28;20052;-78
2023/03/04 13:00:48;;;;;;;9.65;2.53;;;;;;;;;;5033754;28;20128;-78
2023/03/04 13:03:23;;;;;;;9.38;2.17;;;;;;;;;;5034502;28;20095;-77
2023/03/04 13:05:57;;;;;;;8.15;2.50;;;;;;;;;;5034257;28;20046;-78
2023/03/04 13:08:33;;;;;;;7.95;2.40;;;;;;;;;;5050046;28;20056;-78
2023/03/04 13:11:22;;;;;;;9.60;2.20;;;;;;;;;;5054253;28;20396;-78
2023/03/04 13:14:00;;;;;;;12.75;2.78;;;;;;;;;;5045626;28;20095;-77
2023/03/04 13:16:31;;;;;;;11.50;2.45;;;;;;;;;;5036724;28;20527;-78
2023/03/04 13:18:58;;;;;;;11.93;2.85;;;;;;;;;;5052670;28;20053;-78
2023/03/04 13:21:25;;;;;;;8.73;2.70;;;;;;;;;;5053010;28;20052;-78
2023/03/04 13:23:51;;;;;;;9.05;2.28;;;;;;;;;;5054584;28;20045;-78
2023/03/04 13:26:23;;;;;;;10.48;2.95;;;;;;;;;;5054033;28;20047;-77
2023/03/04 13:28:54;;;;;;;12.20;3.00;;;;;;;;;;5053722;28;20095;-78
2023/03/04 13:31:25;;;;;;;9.68;2.60;;;;;;;;;;5053962;28;20041;-78
2023/03/04 13:33:52;;;;;;;13.35;2.40;;;;;;;;;;5054078;28;20041;-78
2023/03/04 13:36:27;;;;;;;7.70;2.17;;;;;;;;;;5053438;28;20474;-77
2023/03/04 13:39:00;;;;;;;9.93;2.70;;;;;;;;;;5055169;28;20045;-77
2023/03/04 13:41:30;;;;;;;13.73;2.92;;;;;;;;;;5064147;28;20515;-77
2023/03/04 13:43:57;;;;;;;15.35;3.67;;;;;;;;;;5041697;28;20056;-77
2023/03/04 13:46:23;;;;;;;14.82;3.22;;;;;;;;;;5032566;28;20081;-77
2023/03/04 13:48:49;;;;;;;10.50;2.60;;;;;;;;;;5032093;28;20095;-78
2023/03/04 13:51:21;;;;;;;12.48;2.80;;;;;;;;;;5045434;28;20109;-77
2023/03/04 13:53:52;;;;;;;13.00;2.70;;;;;;;;;;5053213;28;20075;-77
2023/03/04 13:56:18;;;;;;;13.70;2.88;;;;;;;;;;5053899;28;20041;-77
2023/03/04 13:58:44;;;;;;;12.52;3.22;;;;;;;;;;5053804;28;20099;-78
2023/03/04 14:01:33;;;;;;;9.70;2.45;;;;;;;;;;5052937;28;20049;-78
2023/03/04 14:04:00;;;;;;;8.27;2.67;;;;;;;;;;5052207;28;20498;-78
2023/03/04 14:06:28;;;;;;;10.00;2.45;;;;;;;;;;5051499;28;20124;-77
2023/03/04 14:08:55;;;;;;;12.07;2.90;;;;;;;;;;5053512;28;20041;-76
2023/03/04 14:11:27;;;;;;;12.80;3.65;;;;;;;;;;5055369;28;20037;-77
2023/03/04 14:13:55;;;;;;;15.70;3.40;;;;;;;;;;5054025;28;20045;-77
2023/03/04 14:16:21;;;;;;;14.65;2.85;;;;;;;;;;5052756;28;20044;-77
2023/03/04 14:19:05;;;;;;;12.35;3.47;;;;;;;;;;5053644;28;20102;-77
2023/03/04 14:21:32;;;;;;;9.38;2.80;;;;;;;;;;5041709;28;20379;-77
2023/03/04 14:24:02;;;;;;;7.20;2.17;;;;;;;;;;5052024;28;20037;-77
2023/03/04 14:26:29;;;;;;;8.48;2.42;;;;;;;;;;5052184;28;20088;-77
2023/03/04 14:28:58;;;;;;;13.70;2.75;;;;;;;;;;5053383;28;20514;-77
2023/03/04 14:31:26;;;;;;;7.07;2.35;;;;;;;;;;5053398;28;20061;-77
2023/03/04 14:34:00;;;;;;;11.70;3.70;;;;;;;;;;5055836;28;20114;-76
2023/03/04 14:36:27;;;;;;;11.30;2.40;;;;;;;;;;5053283;28;20495;-77
2023/03/04 14:38:54;;;;;;;10.30;2.53;;;;;;;;;;5054566;28;20056;-77
2023/03/04 14:41:24;;;;;;;10.48;3.30;;;;;;;;;;5058552;28;20045;-78
2023/03/04 14:44:10;;;;;;;9.98;2.80;;;;;;;;;;5056664;28;20054;-77